createdAt,value
2023-06-20T00:00:01.630Z,101190
2023-06-20T00:05:00.663Z,101190
2023-06-20T00:10:00.742Z,101190
2023-06-20T00:15:00.609Z,101180
2023-06-20T00:20:00.632Z,101180
2023-06-20T00:25:04.642Z,101170
2023-06-20T00:30:00.665Z,101180
2023-06-20T00:35:00.778Z,101180
2023-06-20T00:40:00.582Z,101180
2023-06-20T00:45:00.909Z,101180
2023-06-20T00:50:00.720Z,101170
2023-06-20T00:55:00.593Z,101180
2023-06-20T01:00:01.076Z,101170
2023-06-20T01:05:00.716Z,101170
2023-06-20T01:10:11.307Z,101170
2023-06-20T01:15:09.767Z,101170
2023-06-20T01:20:10.534Z,101170
2023-06-20T01:25:05.132Z,101160
2023-06-20T01:30:08.934Z,101160
2023-06-20T01:35:08.691Z,101160
2023-06-20T01:40:02.815Z,101160
2023-06-20T01:45:04.275Z,101160
2023-06-20T01:50:02.555Z,101160
2023-06-20T01:55:03.655Z,101160
2023-06-20T02:00:02.904Z,101150
2023-06-20T02:05:02.505Z,101140
2023-06-20T02:10:01.725Z,101130
2023-06-20T02:15:00.974Z,101130
2023-06-20T02:20:00.840Z,101120
2023-06-20T02:25:06.266Z,101110
2023-06-20T02:30:03.105Z,101110
2023-06-20T02:35:02.360Z,101110
2023-06-20T02:40:00.784Z,101110
2023-06-20T02:45:01.058Z,101110
2023-06-20T02:50:10.525Z,101110
2023-06-20T02:55:10.872Z,101110
2023-06-20T03:00:04.663Z,101110
2023-06-20T03:05:03.560Z,101110
2023-06-20T03:10:01.343Z,101100
2023-06-20T03:15:00.587Z,101110
2023-06-20T03:20:03.134Z,101100
2023-06-20T03:25:00.616Z,101100
2023-06-20T03:30:03.013Z,101090
2023-06-20T03:35:00.574Z,101080
2023-06-20T03:40:00.567Z,101080
2023-06-20T03:45:00.596Z,101080
2023-06-20T03:50:00.605Z,101080
2023-06-20T03:55:00.565Z,101080
2023-06-20T04:00:02.639Z,101090
2023-06-20T04:05:00.679Z,101100
2023-06-20T04:10:00.566Z,101100
2023-06-20T04:15:00.578Z,101090
2023-06-20T04:20:00.590Z,101090
2023-06-20T04:25:00.631Z,101100
2023-06-20T04:30:00.579Z,101110
2023-06-20T04:35:00.541Z,101100
2023-06-20T04:40:00.586Z,101110
2023-06-20T04:45:00.552Z,101110
2023-06-20T04:50:00.579Z,101100
2023-06-20T04:55:00.577Z,101100
2023-06-20T05:00:00.986Z,101090
2023-06-20T05:05:00.546Z,101090
2023-06-20T05:10:00.596Z,101080
2023-06-20T05:15:00.563Z,101080
2023-06-20T05:20:00.543Z,101080
2023-06-20T05:25:00.633Z,101070
2023-06-20T05:30:00.543Z,101070
2023-06-20T05:35:00.923Z,101070
2023-06-20T05:40:01.618Z,101060
2023-06-20T05:45:00.674Z,101060
2023-06-20T05:50:00.665Z,101060
2023-06-20T05:55:00.668Z,101050
2023-06-20T06:00:01.796Z,101050
2023-06-20T06:05:00.660Z,101060
2023-06-20T06:10:01.759Z,101050
2023-06-20T06:15:00.566Z,101060
2023-06-20T06:20:00.790Z,101060
2023-06-20T06:25:00.536Z,101060
2023-06-20T06:30:01.056Z,101060
2023-06-20T06:35:01.026Z,101060
2023-06-20T06:40:01.500Z,101060
2023-06-20T06:45:00.968Z,101070
2023-06-20T06:50:00.574Z,101070
2023-06-20T06:55:00.775Z,101070
2023-06-20T07:00:01.015Z,101070
2023-06-20T07:05:00.623Z,101070
2023-06-20T07:10:00.582Z,101070
2023-06-20T07:15:00.582Z,101060
2023-06-20T07:20:00.582Z,101060
2023-06-20T07:25:00.652Z,101060
2023-06-20T07:30:00.584Z,101050
2023-06-20T07:35:00.578Z,101040
2023-06-20T07:40:01.018Z,101050
2023-06-20T07:45:00.624Z,101050
2023-06-20T07:50:00.581Z,101040
2023-06-20T07:55:00.588Z,101040
2023-06-20T08:00:00.822Z,101040
2023-06-20T08:05:00.559Z,101040
2023-06-20T08:10:00.823Z,101040
2023-06-20T08:15:00.543Z,101030
2023-06-20T08:20:00.763Z,101020
2023-06-20T08:25:00.762Z,101020
2023-06-20T08:30:00.700Z,101010
2023-06-20T08:35:00.591Z,101020
2023-06-20T08:40:00.664Z,101030
2023-06-20T08:45:01.124Z,101040
2023-06-20T08:50:00.869Z,101030
2023-06-20T08:55:01.170Z,101020
2023-06-20T09:00:00.822Z,101020
2023-06-20T09:05:02.201Z,101020
2023-06-20T09:10:01.242Z,101020
2023-06-20T09:15:00.648Z,101020
2023-06-20T09:20:00.977Z,101010
2023-06-20T09:25:04.363Z,101010
2023-06-20T09:30:00.573Z,101010
2023-06-20T09:35:03.476Z,101010
2023-06-20T09:40:05.027Z,101020
2023-06-20T09:45:00.614Z,101010
2023-06-20T09:50:04.766Z,101010
2023-06-20T09:55:04.397Z,101020
2023-06-20T10:00:01.971Z,101020
2023-06-20T10:05:01.244Z,101030
2023-06-20T10:10:01.465Z,101020
2023-06-20T10:15:03.079Z,101010
2023-06-20T10:20:00.867Z,101010
2023-06-20T10:25:01.754Z,101010
2023-06-20T10:30:00.555Z,101000
2023-06-20T10:35:05.411Z,101000
2023-06-20T10:40:00.594Z,101000
2023-06-20T10:45:19.896Z,100990
2023-06-20T10:50:00.647Z,100990
2023-06-20T10:55:00.581Z,100990
2023-06-20T11:00:05.312Z,100970
2023-06-20T11:05:01.196Z,100980
2023-06-20T11:10:13.780Z,100960
2023-06-20T11:15:20.454Z,100970
2023-06-20T11:20:00.662Z,100950
2023-06-20T11:25:00.544Z,100940
2023-06-20T11:30:00.576Z,100920
2023-06-20T11:35:00.864Z,100920
2023-06-20T11:40:00.719Z,100920
2023-06-20T11:45:11.050Z,100920
2023-06-20T11:50:00.589Z,100930
2023-06-20T11:55:00.555Z,100940
2023-06-20T12:00:01.065Z,100930
2023-06-20T12:05:02.970Z,100920
2023-06-20T12:10:08.254Z,100920
2023-06-20T12:15:00.561Z,100920
2023-06-20T12:20:00.574Z,100920
2023-06-20T12:25:00.543Z,100920
2023-06-20T12:30:00.585Z,100920
2023-06-20T12:35:00.626Z,100920
2023-06-20T12:40:00.561Z,100900
2023-06-20T12:45:00.657Z,100900
2023-06-20T12:50:00.592Z,100890
2023-06-20T12:55:00.653Z,100880
2023-06-20T13:00:01.739Z,100880
2023-06-20T13:05:01.114Z,100890
2023-06-20T13:10:00.637Z,100870
2023-06-20T13:15:07.606Z,100860
2023-06-20T13:20:00.584Z,100860
2023-06-20T13:25:00.668Z,100860
2023-06-20T13:30:00.608Z,100850
2023-06-20T13:35:00.553Z,100850
2023-06-20T13:40:00.571Z,100830
2023-06-20T13:45:00.578Z,100820
2023-06-20T13:50:00.573Z,100820
2023-06-20T13:55:00.962Z,100820
2023-06-20T14:00:02.391Z,100810
2023-06-20T14:05:00.546Z,100810
2023-06-20T14:10:01.968Z,100800
2023-06-20T14:15:00.793Z,100790
2023-06-20T14:20:00.626Z,100780
2023-06-20T14:25:00.597Z,100800
2023-06-20T14:30:00.708Z,100800
2023-06-20T14:35:00.606Z,100790
2023-06-20T14:40:00.630Z,100800
2023-06-20T14:45:00.594Z,100790
2023-06-20T14:50:00.580Z,100780
2023-06-20T14:55:00.548Z,100770
2023-06-20T15:00:00.934Z,100760
2023-06-20T15:05:01.245Z,100800
2023-06-20T15:10:01.064Z,100840
2023-06-20T15:15:00.632Z,100870
2023-06-20T15:20:00.667Z,100910
2023-06-20T15:25:00.600Z,100960
2023-06-20T15:30:00.645Z,100960
2023-06-20T15:35:00.606Z,100930
2023-06-20T15:40:00.704Z,100910
2023-06-20T15:45:00.634Z,100890
2023-06-20T15:50:01.490Z,100890
2023-06-20T15:55:00.549Z,100870
2023-06-20T16:00:02.097Z,100920
2023-06-20T16:05:00.616Z,100950
2023-06-20T16:10:00.706Z,100980
2023-06-20T16:15:00.690Z,101000
2023-06-20T16:20:00.562Z,100980
2023-06-20T16:25:00.672Z,100990
2023-06-20T16:30:00.608Z,100990
2023-06-20T16:35:00.560Z,100990
2023-06-20T16:40:00.634Z,100960
2023-06-20T16:45:00.975Z,100950
2023-06-20T16:50:00.602Z,100960
2023-06-20T16:55:00.582Z,100950
2023-06-20T17:00:00.969Z,100940
2023-06-20T17:05:00.683Z,100950
2023-06-20T17:10:00.581Z,100960
2023-06-20T17:15:00.703Z,100950
2023-06-20T17:20:00.568Z,100970
2023-06-20T17:25:00.646Z,100970
2023-06-20T17:30:00.705Z,100970
2023-06-20T17:35:00.653Z,100960
2023-06-20T17:40:00.562Z,100950
2023-06-20T17:45:01.223Z,100960
2023-06-20T17:50:00.826Z,100960
2023-06-20T17:55:00.575Z,100960
2023-06-20T18:00:01.869Z,100960
2023-06-20T18:05:00.605Z,100960
2023-06-20T18:10:00.607Z,100960
2023-06-20T18:15:00.775Z,100960
2023-06-20T18:20:00.741Z,100950
2023-06-20T18:25:00.556Z,100960
2023-06-20T18:30:00.579Z,100950
2023-06-20T18:35:00.735Z,100960
2023-06-20T18:40:00.676Z,100950
2023-06-20T18:45:00.569Z,100960
2023-06-20T18:50:00.610Z,100960
2023-06-20T18:55:00.600Z,100980
2023-06-20T19:00:02.243Z,100970
2023-06-20T19:05:01.276Z,100960
2023-06-20T19:10:00.639Z,100990
2023-06-20T19:15:00.619Z,101000
2023-06-20T19:20:00.568Z,100970
2023-06-20T19:25:00.894Z,100960
2023-06-20T19:30:00.596Z,100980
2023-06-20T19:35:00.984Z,101000
2023-06-20T19:40:02.615Z,101000
2023-06-20T19:45:00.734Z,101020
2023-06-20T19:50:00.583Z,101030
2023-06-20T19:55:00.606Z,101050
2023-06-20T20:00:01.757Z,101060
2023-06-20T20:05:00.697Z,101080
2023-06-20T20:10:00.736Z,101100
2023-06-20T20:15:00.576Z,101120
2023-06-20T20:20:00.625Z,101130
2023-06-20T20:30:00.663Z,101120
2023-06-20T20:35:00.573Z,101120
2023-06-20T20:40:00.738Z,101110
2023-06-20T20:45:00.652Z,101110
2023-06-20T20:50:00.723Z,101120
2023-06-20T20:55:00.571Z,101120
2023-06-20T21:00:01.790Z,101110
2023-06-20T21:05:00.585Z,101090
2023-06-20T21:10:00.585Z,101090
2023-06-20T21:15:00.576Z,101090
2023-06-20T21:20:00.629Z,101100
2023-06-20T21:25:01.447Z,101100
2023-06-20T21:30:00.625Z,101100
2023-06-20T21:35:00.634Z,101100
2023-06-20T21:40:00.578Z,101100
2023-06-20T21:45:00.562Z,101110
2023-06-20T21:50:00.623Z,101120
2023-06-20T21:55:00.570Z,101130
2023-06-20T22:00:02.248Z,101130
2023-06-20T22:05:00.576Z,101130
2023-06-20T22:10:04.406Z,101150
2023-06-20T22:15:01.146Z,101140
2023-06-20T22:20:00.573Z,101140
2023-06-20T22:25:00.695Z,101130
2023-06-20T22:30:00.937Z,101140
2023-06-20T22:35:00.831Z,101140
2023-06-20T22:40:00.618Z,101130
2023-06-20T22:45:00.691Z,101120
2023-06-20T22:50:00.692Z,101130
2023-06-20T22:55:00.656Z,101130
2023-06-20T23:00:02.455Z,101140
2023-06-20T23:05:00.568Z,101130
2023-06-20T23:10:00.575Z,101130
2023-06-20T23:15:00.659Z,101120
2023-06-20T23:20:00.580Z,101140
2023-06-20T23:25:00.565Z,101140
2023-06-20T23:30:00.562Z,101140
2023-06-20T23:35:00.622Z,101150
2023-06-20T23:40:00.926Z,101160
2023-06-20T23:45:00.548Z,101170
2023-06-20T23:50:00.829Z,101170
2023-06-20T23:55:00.591Z,101170
